Close

Questo sito utlizza cookie. Può leggere come li usiamo nella nostra Privacy Policy.

Ronchi Tower
Ronchi Tower

From Facebook

METAR & TAF

2018/10/23 02:50 LIPQ 230250Z AUTO 34006KT 9999 FEW190/// 07/05 Q1023
2018/10/22 18:21 TAF LIPQ 221700Z 2218/2318 06014KT 9999 FEW040 BECMG 2300/2302 VRB05KT
2018/10/23 02:50 LIPZ 230250Z 28003KT 240V300 CAVOK 09/07 Q1024 NOSIG
2018/10/22 18:21 TAF LIPZ 221700Z 2218/2324 04015KT 9999 SCT030 BECMG 2310/2312 VRB05KT
2018/10/23 02:50 LIPH 230250Z AUTO VRB02KT 9999 NCD 07/06 Q1024
2018/10/22 18:21 TAF LIPH 221700Z 2218/2318 VRB05KT 9999 SCT030
2018/10/23 02:50 LIRF 230250Z 01014KT CAVOK 15/08 Q1016 NOSIG
2018/10/22 18:52 TAF AMD LIRF 221745Z 2218/2324 02015G25KT CAVOK
2018/10/23 02:50 LIML 230250Z 02004KT CAVOK 07/05 Q1024 NOSIG
2018/10/22 18:21 TAF LIML 221700Z 2218/2318 VRB05KT CAVOK
2018/10/23 03:20 EDDM 230320Z 27004KT 240V300 8000 BKN006 OVC020 08/07 Q1029 NOSIG
2018/10/22 18:27 TAF EDDM 221700Z 2218/2324 28004KT 9999 BKN045 PROB30 TEMPO 2305/2308 BKN010 BECMG 2307/2310 26010KT BECMG 2311/2313 26015G25KT PROB30 TEMPO 2320/2324 26015G35KT
2018/10/23 03:20 EGSS 230320Z AUTO 27005KT 9999 NCD 06/04 Q1032
2018/10/22 18:09 TAF EGSS 221702Z 2218/2324 28008KT 9999 FEW045 PROB30 TEMPO 2304/2310 28015G25KT BKN010 TEMPO 2310/2320 30015G27KT PROB40 TEMPO 2320/2324 30015G25KT BKN010

FlightRadar24

Radar Meteo

Traffic data

Marzo 2018

Passeggeri: 57555-3,4% (rank: 23)
Nazionali 39679 +1,0% 21°
Internazionali 17689 -11,7% 23°

Movimenti: 1074-16,3% (rank: 21)
Tot commerciale 653 -10,3% 22°
Aviazione generale 421 -24,1%

Cargo (tons): 96,3109,5% (rank: 18)

Gennaio - Marzo 2018

Passeggeri: 155953-1,4% (rank: 23)
Nazionali 108431 +3,9% 21°
Internazionali 47066 -11,5% 22°

Movimenti: 3163-14,5% (rank: 21)
Tot commerciale 1876 -7,3% 21°
Aviazione generale 1287 -23,3%

Cargo (tons): 125,6+16,7% (rank: 21)

Photo

Douglas DC-6B
Douglas DC-6B
Distinct views: 17
Douglas DC-6B
Douglas DC-6B
Distinct views: 70
Eurocopter EC-145
Eurocopter EC-145
Distinct views: 214
Lockheed C-130H-30 Hercules
Lockheed C-130H-30 Hercules
Total views: 1474